createdAt,value
2022-12-03T00:00:18.632Z,47.13
2022-12-03T00:02:47.319Z,52.50
2022-12-03T00:05:15.714Z,54.70
2022-12-03T00:07:44.051Z,56.25
2022-12-03T00:10:26.116Z,51.88
2022-12-03T00:12:54.518Z,49.83
2022-12-03T00:15:22.615Z,53.03
2022-12-03T00:17:50.791Z,51.55
2022-12-03T00:20:21.832Z,50.92
2022-12-03T00:22:50.617Z,50.97
2022-12-03T00:25:20.436Z,42.85
2022-12-03T00:27:49.094Z,64.45
2022-12-03T00:30:18.096Z,58.45
2022-12-03T00:32:46.559Z,50.22
2022-12-03T00:35:14.742Z,63.13
2022-12-03T00:37:42.863Z,47.67
2022-12-03T00:40:15.647Z,60.28
2022-12-03T00:42:49.208Z,57.03
2022-12-03T00:45:17.662Z,50.20
2022-12-03T00:47:46.138Z,52.65
2022-12-03T00:50:14.302Z,60.90
2022-12-03T00:52:42.490Z,51.00
2022-12-03T00:55:11.091Z,48.30
2022-12-03T00:57:39.507Z,48.03
2022-12-03T01:00:13.328Z,50.03
2022-12-03T01:02:41.629Z,53.67
2022-12-03T01:05:12.525Z,46.95
2022-12-03T01:07:41.238Z,53.60
2022-12-03T01:10:09.792Z,59.15
2022-12-03T01:12:38.032Z,53.47
2022-12-03T01:15:09.663Z,50.25
2022-12-03T01:17:39.748Z,48.67
2022-12-03T01:20:09.739Z,55.85
2022-12-03T01:22:38.484Z,58.40
2022-12-03T01:25:07.391Z,42.38
2022-12-03T01:27:38.251Z,48.47
2022-12-03T01:30:07.943Z,52.38
2022-12-03T01:32:35.443Z,52.88
2022-12-03T01:35:05.724Z,56.72
2022-12-03T01:37:35.234Z,52.42
2022-12-03T01:40:03.690Z,50.97
2022-12-03T01:42:34.697Z,47.60
2022-12-03T01:45:04.168Z,44.53
2022-12-03T01:47:34.779Z,46.78
2022-12-03T01:50:09.491Z,49.65
2022-12-03T01:52:39.674Z,37.58
2022-12-03T01:55:16.244Z,47.50
2022-12-03T01:57:47.034Z,51.10
2022-12-03T02:00:18.072Z,46.55
2022-12-03T02:02:47.892Z,46.58
2022-12-03T02:05:20.149Z,45.08
2022-12-03T02:07:48.340Z,49.72
2022-12-03T02:10:20.086Z,37.35
2022-12-03T02:12:51.863Z,43.60
2022-12-03T02:15:20.378Z,47.95
2022-12-03T02:17:48.468Z,50.08
2022-12-03T02:20:18.395Z,50.00
2022-12-03T02:22:55.304Z,36.92
2022-12-03T02:25:27.309Z,37.97
2022-12-03T02:27:56.377Z,46.50
2022-12-03T02:30:27.094Z,39.13
2022-12-03T02:32:55.818Z,51.03
2022-12-03T02:35:26.282Z,40.53
2022-12-03T02:37:59.413Z,45.60
2022-12-03T02:40:31.684Z,50.30
2022-12-03T02:43:01.444Z,42.72
2022-12-03T02:45:32.509Z,44.05
2022-12-03T02:48:05.199Z,35.80
2022-12-03T02:50:35.566Z,42.15
2022-12-03T02:53:08.431Z,42.53
2022-12-03T02:55:38.751Z,51.45
2022-12-03T02:58:07.413Z,43.40
2022-12-03T03:00:37.318Z,48.95
2022-12-03T03:03:07.440Z,40.97
2022-12-03T03:05:37.804Z,43.58
2022-12-03T03:08:06.820Z,49.25
2022-12-03T03:10:36.634Z,46.78
2022-12-03T03:13:10.193Z,50.25
2022-12-03T03:15:39.375Z,50.00
2022-12-03T03:18:08.562Z,43.33
2022-12-03T03:20:37.576Z,44.38
2022-12-03T03:23:15.595Z,46.10
2022-12-03T03:25:46.580Z,45.97
2022-12-03T03:28:17.525Z,52.97
2022-12-03T03:30:46.491Z,47.65
2022-12-03T03:33:17.599Z,42.47
2022-12-03T03:35:47.172Z,48.70
2022-12-03T03:38:16.096Z,48.70
2022-12-03T03:40:44.743Z,47.03
2022-12-03T03:43:14.114Z,49.55
2022-12-03T03:45:44.737Z,50.13
2022-12-03T03:48:14.125Z,44.35
2022-12-03T03:50:44.532Z,46.92
2022-12-03T03:53:13.423Z,53.30
2022-12-03T03:55:42.076Z,54.35
2022-12-03T03:58:10.253Z,62.38
2022-12-03T04:00:38.464Z,52.08
2022-12-03T04:03:08.165Z,47.03
2022-12-03T04:05:36.201Z,61.60
2022-12-03T04:08:04.406Z,46.38
2022-12-03T04:10:46.436Z,45.20
2022-12-03T04:13:14.436Z,42.90
2022-12-03T04:15:42.394Z,46.58
2022-12-03T04:18:29.973Z,55.25
2022-12-03T04:21:17.974Z,41.72
2022-12-03T04:23:45.087Z,60.72
2022-12-03T04:26:30.851Z,44.22
2022-12-03T04:28:59.209Z,45.08
2022-12-03T04:31:44.819Z,61.20
2022-12-03T04:34:32.134Z,49.38
2022-12-03T04:37:00.193Z,49.10
2022-12-03T04:39:28.336Z,58.30
2022-12-03T04:41:56.512Z,48.53
2022-12-03T04:44:39.549Z,48.53
2022-12-03T04:47:12.114Z,55.33
2022-12-03T04:49:44.066Z,49.92
2022-12-03T04:52:13.523Z,43.53
2022-12-03T04:54:42.436Z,44.75
2022-12-03T04:57:11.281Z,49.67
2022-12-03T04:59:40.147Z,46.22
2022-12-03T05:02:08.955Z,51.85
2022-12-03T05:04:37.081Z,46.95
2022-12-03T05:07:07.062Z,48.70
2022-12-03T05:09:35.109Z,61.83
2022-12-03T05:12:03.965Z,57.15
2022-12-03T05:14:32.176Z,49.05
2022-12-03T05:17:00.357Z,53.53
2022-12-03T05:19:42.332Z,46.30
2022-12-03T05:22:11.925Z,56.55
2022-12-03T05:24:40.267Z,60.20
2022-12-03T05:27:08.300Z,64.47
2022-12-03T05:29:36.340Z,58.50
2022-12-03T05:32:04.658Z,48.17
2022-12-03T05:34:32.690Z,50.30
2022-12-03T05:37:01.011Z,48.22
2022-12-03T05:39:30.591Z,50.10
2022-12-03T05:42:16.297Z,51.60
2022-12-03T05:44:44.330Z,49.30
2022-12-03T05:47:12.636Z,49.17
2022-12-03T05:49:40.988Z,53.97
2022-12-03T05:52:08.944Z,49.53
2022-12-03T05:54:38.731Z,54.25
2022-12-03T05:57:07.076Z,52.90
2022-12-03T05:59:35.329Z,70.82
2022-12-03T06:02:03.394Z,54.28
2022-12-03T06:04:31.497Z,59.60
2022-12-03T06:06:59.621Z,44.92
2022-12-03T06:09:27.756Z,56.88
2022-12-03T06:11:57.718Z,44.58
2022-12-03T06:14:25.731Z,49.97
2022-12-03T06:16:53.702Z,53.65
2022-12-03T06:19:21.831Z,52.50
2022-12-03T06:21:50.000Z,54.35
2022-12-03T06:24:18.384Z,54.53
2022-12-03T06:26:46.653Z,50.35
2022-12-03T06:29:17.195Z,51.58
2022-12-03T06:31:45.320Z,55.92
2022-12-03T06:34:13.716Z,54.90
2022-12-03T06:36:42.131Z,56.47
2022-12-03T06:39:10.400Z,52.33
2022-12-03T06:41:38.556Z,43.30
2022-12-03T06:44:06.941Z,61.17
2022-12-03T06:46:37.296Z,54.10
2022-12-03T06:49:05.827Z,50.75
2022-12-03T06:51:34.107Z,48.40
2022-12-03T06:54:02.720Z,47.85
2022-12-03T06:56:36.791Z,60.08
2022-12-03T06:59:07.377Z,56.45
2022-12-03T07:01:37.098Z,46.67
2022-12-03T07:04:05.652Z,54.92
2022-12-03T07:06:33.751Z,48.75
2022-12-03T07:09:02.036Z,71.65
2022-12-03T07:11:33.108Z,51.45
2022-12-03T07:14:05.446Z,52.38
2022-12-03T07:16:34.662Z,45.22
2022-12-03T07:19:05.389Z,53.13
2022-12-03T07:21:34.341Z,54.10
2022-12-03T07:24:02.855Z,59.72
2022-12-03T07:26:31.111Z,107.15
2022-12-03T07:28:59.289Z,65.35
2022-12-03T07:31:27.699Z,74.90
2022-12-03T07:33:56.474Z,72.85
2022-12-03T07:36:26.494Z,60.97
2022-12-03T07:38:55.038Z,67.25
2022-12-03T07:41:23.360Z,70.28
2022-12-03T07:43:51.618Z,71.28
2022-12-03T07:46:19.915Z,70.03
2022-12-03T07:48:48.430Z,73.20
2022-12-03T07:51:17.205Z,75.22
2022-12-03T07:53:46.768Z,64.47
2022-12-03T07:56:15.302Z,55.97
2022-12-03T07:58:43.703Z,64.65
2022-12-03T08:01:12.184Z,69.35
2022-12-03T08:03:42.867Z,78.45
2022-12-03T08:06:11.311Z,66.85
2022-12-03T08:08:39.462Z,52.33
2022-12-03T08:11:13.164Z,64.38
2022-12-03T08:13:41.999Z,67.55
2022-12-03T08:16:17.798Z,67.13
2022-12-03T08:18:47.191Z,70.65
2022-12-03T08:21:18.109Z,61.25
2022-12-03T08:23:46.950Z,57.05
2022-12-03T08:26:23.893Z,55.65
2022-12-03T08:28:53.219Z,65.15
2022-12-03T08:31:27.915Z,53.00
2022-12-03T08:34:19.984Z,62.70
2022-12-03T08:36:48.679Z,56.85
2022-12-03T08:39:33.345Z,68.50
2022-12-03T08:42:30.639Z,76.30
2022-12-03T08:45:19.475Z,58.72
2022-12-03T08:47:47.784Z,61.45
2022-12-03T08:50:28.586Z,65.93
2022-12-03T08:53:01.569Z,64.18
2022-12-03T08:55:36.554Z,65.93
2022-12-03T08:58:21.954Z,65.90
2022-12-03T09:00:59.541Z,70.75
2022-12-03T09:03:31.932Z,67.63
2022-12-03T09:06:00.319Z,67.93
2022-12-03T09:08:28.776Z,54.35
2022-12-03T09:10:57.069Z,60.55
2022-12-03T09:13:26.688Z,64.35
2022-12-03T09:15:55.025Z,62.78
2022-12-03T09:18:23.579Z,60.80
2022-12-03T09:20:51.904Z,54.28
2022-12-03T09:23:20.151Z,56.45
2022-12-03T09:25:48.355Z,56.40
2022-12-03T09:28:17.044Z,67.57
2022-12-03T09:30:46.869Z,63.45
2022-12-03T09:33:15.491Z,62.25
2022-12-03T09:35:43.773Z,58.55
2022-12-03T09:38:12.361Z,54.03
2022-12-03T09:40:42.658Z,53.47
2022-12-03T09:43:12.029Z,55.53
2022-12-03T09:45:40.468Z,63.22
2022-12-03T09:48:09.960Z,64.78
2022-12-03T09:50:41.686Z,57.08
2022-12-03T09:53:14.209Z,57.50
2022-12-03T09:55:45.263Z,70.75
2022-12-03T09:58:15.663Z,58.15
2022-12-03T10:00:46.961Z,58.97
2022-12-03T10:03:19.209Z,51.78
2022-12-03T10:05:48.477Z,65.95
2022-12-03T10:08:21.626Z,61.15
2022-12-03T10:10:54.205Z,61.83
2022-12-03T10:13:26.401Z,73.63
2022-12-03T10:15:56.472Z,68.80
2022-12-03T10:18:30.821Z,74.15
2022-12-03T10:20:59.706Z,66.90
2022-12-03T10:23:31.014Z,64.95
2022-12-03T10:26:01.737Z,69.78
2022-12-03T10:28:47.652Z,66.60
2022-12-03T10:31:16.468Z,67.80
2022-12-03T10:33:47.351Z,74.63
2022-12-03T10:36:23.447Z,62.60
2022-12-03T10:39:10.260Z,86.20
2022-12-03T10:41:39.239Z,65.72
2022-12-03T10:44:20.026Z,65.10
2022-12-03T10:47:06.904Z,58.85
2022-12-03T10:49:36.952Z,70.90
2022-12-03T10:52:06.310Z,71.60
2022-12-03T10:54:36.809Z,82.35
2022-12-03T10:57:05.155Z,84.55
2022-12-03T10:59:35.242Z,73.35
2022-12-03T11:02:05.163Z,73.07
2022-12-03T11:04:35.607Z,70.43
2022-12-03T11:07:15.406Z,64.30
2022-12-03T11:09:46.033Z,69.00
2022-12-03T11:12:20.549Z,62.38
2022-12-03T11:15:06.549Z,64.60
2022-12-03T11:17:45.955Z,68.80
2022-12-03T11:21:08.017Z,62.33
2022-12-03T11:24:18.908Z,87.07
2022-12-03T11:27:26.732Z,70.32
2022-12-03T11:30:02.789Z,86.38
2022-12-03T11:33:00.978Z,80.35
2022-12-03T11:35:37.824Z,85.55
2022-12-03T11:38:52.232Z,68.05
2022-12-03T11:41:25.017Z,77.88
2022-12-03T11:44:29.664Z,76.95
2022-12-03T11:47:09.594Z,67.80
2022-12-03T11:49:47.393Z,71.50
2022-12-03T11:52:25.715Z,78.60
2022-12-03T11:54:58.918Z,66.90
2022-12-03T11:57:31.699Z,71.32
2022-12-03T12:00:02.225Z,78.53
2022-12-03T12:02:40.110Z,59.28
2022-12-03T12:05:28.675Z,69.13
2022-12-03T12:07:57.567Z,75.20
2022-12-03T12:10:46.840Z,77.40
2022-12-03T12:13:50.143Z,72.07
2022-12-03T12:16:50.264Z,87.25
2022-12-03T12:19:43.008Z,82.07
2022-12-03T12:22:20.232Z,79.85
2022-12-03T12:24:51.977Z,115.25
2022-12-03T12:27:22.787Z,81.93
2022-12-03T12:29:57.471Z,94.60
2022-12-03T12:32:28.596Z,104.18
2022-12-03T12:35:01.224Z,73.35
2022-12-03T12:37:34.955Z,84.15
2022-12-03T12:40:11.864Z,98.97
2022-12-03T12:42:49.069Z,89.05
2022-12-03T12:45:22.759Z,78.70
2022-12-03T12:48:01.638Z,68.25
2022-12-03T12:50:32.022Z,85.15
2022-12-03T12:53:04.061Z,81.68
2022-12-03T12:55:32.532Z,87.25
2022-12-03T12:58:03.583Z,82.07
2022-12-03T13:00:33.302Z,91.32
2022-12-03T13:03:03.856Z,83.38
2022-12-03T13:05:39.807Z,98.32
2022-12-03T13:08:21.620Z,89.07
2022-12-03T13:10:51.033Z,89.00
2022-12-03T13:13:23.326Z,94.95
2022-12-03T13:16:00.781Z,85.10
2022-12-03T13:18:34.680Z,86.72
2022-12-03T13:21:14.606Z,74.20
2022-12-03T13:23:42.842Z,83.05
2022-12-03T13:26:34.523Z,81.50
2022-12-03T13:29:15.581Z,83.25
2022-12-03T13:31:50.223Z,75.88
2022-12-03T13:34:22.533Z,99.05
2022-12-03T13:36:57.701Z,84.80
2022-12-03T13:39:31.230Z,81.05
2022-12-03T13:42:24.751Z,80.90
2022-12-03T13:44:54.409Z,71.05
2022-12-03T13:47:25.087Z,91.57
2022-12-03T13:49:57.752Z,68.07
2022-12-03T13:52:26.964Z,78.72
2022-12-03T13:54:57.265Z,82.20
2022-12-03T13:57:25.911Z,89.30
2022-12-03T13:59:54.484Z,88.05
2022-12-03T14:02:24.621Z,96.43
2022-12-03T14:04:59.801Z,96.45
2022-12-03T14:07:28.937Z,80.20
2022-12-03T14:09:58.226Z,89.65
2022-12-03T14:12:26.769Z,103.03
2022-12-03T14:14:55.358Z,90.13
2022-12-03T14:17:25.204Z,100.10
2022-12-03T14:19:53.620Z,82.60
2022-12-03T14:22:25.331Z,97.40
2022-12-03T14:24:54.902Z,97.82
2022-12-03T14:27:25.402Z,86.72
2022-12-03T14:29:54.077Z,91.70
2022-12-03T14:32:22.550Z,93.63
2022-12-03T14:34:52.191Z,107.22
2022-12-03T14:37:20.733Z,104.63
2022-12-03T14:39:49.027Z,98.32
2022-12-03T14:42:18.327Z,93.43
2022-12-03T14:44:48.339Z,82.70
2022-12-03T14:47:18.577Z,103.90
2022-12-03T14:49:47.830Z,98.45
2022-12-03T14:52:17.756Z,86.82
2022-12-03T14:54:46.518Z,112.40
2022-12-03T14:57:16.484Z,87.68
2022-12-03T14:59:47.007Z,82.28
2022-12-03T15:02:15.781Z,93.43
2022-12-03T15:04:44.320Z,114.35
2022-12-03T15:07:12.671Z,97.70
2022-12-03T15:09:42.200Z,96.18
2022-12-03T15:12:10.652Z,87.72
2022-12-03T15:14:39.120Z,87.00
2022-12-03T15:17:07.610Z,94.22
2022-12-03T15:19:36.168Z,89.35
2022-12-03T15:22:04.580Z,90.38
2022-12-03T15:24:32.738Z,78.63
2022-12-03T15:27:02.467Z,92.20
2022-12-03T15:29:30.584Z,79.90
2022-12-03T15:32:01.010Z,71.35
2022-12-03T15:34:29.098Z,83.18
2022-12-03T15:36:57.114Z,94.43
2022-12-03T15:39:25.492Z,105.03
2022-12-03T15:41:53.556Z,87.78
2022-12-03T15:44:24.056Z,87.28
2022-12-03T15:46:52.161Z,86.60
2022-12-03T15:49:20.231Z,81.63
2022-12-03T15:51:48.549Z,107.00
2022-12-03T15:54:16.680Z,82.30
2022-12-03T15:56:44.916Z,82.93
2022-12-03T15:59:13.419Z,114.07
2022-12-03T16:01:43.129Z,98.75
2022-12-03T16:04:11.546Z,82.38
2022-12-03T16:06:39.627Z,99.40
2022-12-03T16:09:08.083Z,88.22
2022-12-03T16:11:36.121Z,86.63
2022-12-03T16:14:04.400Z,94.37
2022-12-03T16:16:32.785Z,87.85
2022-12-03T16:19:02.328Z,102.97
2022-12-03T16:21:30.408Z,100.40
2022-12-03T16:23:59.351Z,97.40
2022-12-03T16:26:27.839Z,95.90
2022-12-03T16:28:56.150Z,100.47
2022-12-03T16:31:25.170Z,97.90
2022-12-03T16:33:53.202Z,87.07
2022-12-03T16:36:22.585Z,84.57
2022-12-03T16:38:51.862Z,90.68
2022-12-03T16:41:20.219Z,88.25
2022-12-03T16:43:48.618Z,87.93
2022-12-03T16:46:26.362Z,91.10
2022-12-03T16:48:56.473Z,92.85
2022-12-03T16:51:30.312Z,74.70
2022-12-03T16:53:58.456Z,109.75
2022-12-03T16:56:26.417Z,80.85
2022-12-03T16:58:54.402Z,81.75
2022-12-03T17:01:23.441Z,92.70
2022-12-03T17:03:51.941Z,93.82
2022-12-03T17:06:20.180Z,97.68
2022-12-03T17:08:50.146Z,99.63
2022-12-03T17:11:18.859Z,104.82
2022-12-03T17:13:47.066Z,106.57
2022-12-03T17:16:15.414Z,108.50
2022-12-03T17:18:43.958Z,99.72
2022-12-03T17:21:12.028Z,94.15
2022-12-03T17:23:40.216Z,102.32
2022-12-03T17:26:09.624Z,101.57
2022-12-03T17:28:37.834Z,107.00
2022-12-03T17:31:06.272Z,111.93
2022-12-03T17:33:34.363Z,105.03
2022-12-03T17:36:02.819Z,98.40
2022-12-03T17:38:35.676Z,100.18
2022-12-03T17:41:09.083Z,98.35
2022-12-03T17:43:37.076Z,120.15
2022-12-03T17:46:06.698Z,98.60
2022-12-03T17:48:35.460Z,102.65
2022-12-03T17:51:03.920Z,104.75
2022-12-03T17:53:32.026Z,109.65
2022-12-03T17:56:00.217Z,113.72
2022-12-03T17:58:29.864Z,99.65
2022-12-03T18:01:02.473Z,116.47
2022-12-03T18:03:31.274Z,112.22
2022-12-03T18:05:59.352Z,131.15
2022-12-03T18:08:27.441Z,128.27
2022-12-03T18:10:55.510Z,124.93
2022-12-03T18:13:23.650Z,98.05
2022-12-03T18:15:53.305Z,117.78
2022-12-03T18:18:21.468Z,102.32
2022-12-03T18:20:49.615Z,115.32
2022-12-03T18:23:17.770Z,101.22
2022-12-03T18:25:46.002Z,109.97
2022-12-03T18:28:14.210Z,121.28
2022-12-03T18:30:43.323Z,111.53
2022-12-03T18:33:16.752Z,112.95
2022-12-03T18:35:45.340Z,105.72
2022-12-03T18:38:15.513Z,112.07
2022-12-03T18:40:44.704Z,108.90
2022-12-03T18:43:13.919Z,122.68
2022-12-03T18:45:42.835Z,128.35
2022-12-03T18:48:13.971Z,119.30
2022-12-03T18:50:44.948Z,113.25
2022-12-03T18:53:14.733Z,109.20
2022-12-03T18:55:44.454Z,143.65
2022-12-03T18:58:12.546Z,118.95
2022-12-03T19:00:41.186Z,121.80
2022-12-03T19:03:09.276Z,125.40
2022-12-03T19:05:37.626Z,115.97
2022-12-03T19:08:14.417Z,116.60
2022-12-03T19:10:43.101Z,132.63
2022-12-03T19:13:11.156Z,103.80
2022-12-03T19:15:39.846Z,120.00
2022-12-03T19:18:08.247Z,140.43
2022-12-03T19:20:36.353Z,117.80
2022-12-03T19:23:04.400Z,128.60
2022-12-03T19:25:34.157Z,124.95
2022-12-03T19:28:02.188Z,107.30
2022-12-03T19:30:30.623Z,118.30
2022-12-03T19:32:58.823Z,107.30
2022-12-03T19:35:26.879Z,124.30
2022-12-03T19:37:55.746Z,133.98
2022-12-03T19:40:23.866Z,120.35
2022-12-03T19:42:53.895Z,111.55
2022-12-03T19:45:21.948Z,141.05
2022-12-03T19:47:50.044Z,105.35
2022-12-03T19:50:22.908Z,133.95
2022-12-03T19:52:51.284Z,120.38
2022-12-03T19:55:20.515Z,127.25
2022-12-03T19:57:48.712Z,127.63
2022-12-03T20:00:19.834Z,156.40
2022-12-03T20:02:50.576Z,127.82
2022-12-03T20:05:18.899Z,121.30
2022-12-03T20:07:47.088Z,131.40
2022-12-03T20:10:15.211Z,126.85
2022-12-03T20:12:43.211Z,148.70
2022-12-03T20:15:12.820Z,143.07
2022-12-03T20:17:42.801Z,114.90
2022-12-03T20:20:11.655Z,119.15
2022-12-03T20:22:39.640Z,114.93
2022-12-03T20:25:08.523Z,127.07
2022-12-03T20:27:36.701Z,101.45
2022-12-03T20:30:05.727Z,115.45
2022-12-03T20:32:33.747Z,135.63
2022-12-03T20:35:04.424Z,134.80
2022-12-03T20:37:32.656Z,122.68
2022-12-03T20:40:00.730Z,132.13
2022-12-03T20:42:28.894Z,109.82
2022-12-03T20:44:57.149Z,132.68
2022-12-03T20:47:25.200Z,122.85
2022-12-03T20:49:53.439Z,140.30
2022-12-03T20:52:23.450Z,140.10
2022-12-03T20:54:51.459Z,125.22
2022-12-03T20:57:19.528Z,127.90
2022-12-03T20:59:47.586Z,146.38
2022-12-03T21:02:16.285Z,119.60
2022-12-03T21:04:44.489Z,120.32
2022-12-03T21:07:12.654Z,131.68
2022-12-03T21:09:42.608Z,116.70
2022-12-03T21:12:10.787Z,131.40
2022-12-03T21:14:38.859Z,127.40
2022-12-03T21:17:08.732Z,121.93
2022-12-03T21:19:38.006Z,143.82
2022-12-03T21:22:06.793Z,130.95
2022-12-03T21:24:35.326Z,160.68
2022-12-03T21:27:04.979Z,137.80
2022-12-03T21:29:33.121Z,124.60
2022-12-03T21:32:01.166Z,103.72
2022-12-03T21:34:35.790Z,140.43
2022-12-03T21:37:05.240Z,150.57
2022-12-03T21:39:33.338Z,132.98
2022-12-03T21:42:34.235Z,104.82
2022-12-03T21:44:52.019Z,120.82
2022-12-03T21:47:20.156Z,130.40
2022-12-03T21:49:48.665Z,144.68
2022-12-03T21:52:16.811Z,137.85
2022-12-03T21:54:44.890Z,143.27
2022-12-03T21:57:13.187Z,155.52
2022-12-03T21:59:41.264Z,129.50
2022-12-03T22:02:12.412Z,134.13
2022-12-03T22:04:40.918Z,133.32
2022-12-03T22:07:08.890Z,137.25
2022-12-03T22:09:37.179Z,148.07
2022-12-03T22:12:05.600Z,153.27
2022-12-03T22:14:33.722Z,141.15
2022-12-03T22:17:01.757Z,137.27
2022-12-03T22:19:31.510Z,134.95
2022-12-03T22:21:59.738Z,122.45
2022-12-03T22:24:27.779Z,144.15
2022-12-03T22:26:55.928Z,156.52
2022-12-03T22:29:24.009Z,131.77
2022-12-03T22:31:52.613Z,130.35
2022-12-03T22:34:20.732Z,125.75
2022-12-03T22:36:50.239Z,125.80
2022-12-03T22:39:18.372Z,109.07
2022-12-03T22:41:46.482Z,127.95
2022-12-03T22:44:14.689Z,124.28
2022-12-03T22:46:43.046Z,132.73
2022-12-03T22:49:13.334Z,122.60
2022-12-03T22:51:41.292Z,131.88
2022-12-03T22:54:11.646Z,131.95
2022-12-03T22:56:39.852Z,120.93
2022-12-03T22:59:08.868Z,141.35
2022-12-03T23:01:38.746Z,133.23
2022-12-03T23:04:08.337Z,132.82
2022-12-03T23:06:37.566Z,133.70
2022-12-03T23:09:07.018Z,147.48
2022-12-03T23:11:37.090Z,148.30
2022-12-03T23:14:05.508Z,126.30
2022-12-03T23:16:34.378Z,146.55
2022-12-03T23:19:04.080Z,142.43
2022-12-03T23:21:35.337Z,135.18
2022-12-03T23:24:05.452Z,123.20
2022-12-03T23:26:37.524Z,136.68
2022-12-03T23:29:08.457Z,112.13
2022-12-03T23:31:37.407Z,133.90
2022-12-03T23:34:05.971Z,121.10
2022-12-03T23:36:34.771Z,127.03
2022-12-03T23:39:02.874Z,116.53
2022-12-03T23:41:30.928Z,129.02
2022-12-03T23:44:00.315Z,116.05
2022-12-03T23:46:29.156Z,131.88
2022-12-03T23:48:59.519Z,118.78
2022-12-03T23:51:28.114Z,118.20
2022-12-03T23:53:56.645Z,119.45
2022-12-03T23:56:27.573Z,141.18
2022-12-03T23:58:56.403Z,119.93
